Terminal Aerodrome Forecast
Issued by NWS

Home | Current Version | Previous Version | Text Only | Print | Product List | Glossary On
Versions: 1 2 3 4 5 6 7 8 9 10 11 12 13 14
000
FTUS41 KCAR 050533
TAFFVE
TAF
KFVE 050533Z 0506/0606 29015G30KT P6SM -SHRA OVC040
     FM050800 28012KT P6SM SCT080
     FM051400 30015G25KT P6SM SCT250
     FM060000 29009KT P6SM BKN050=

USA.gov is the U.S. government's official web portal to all federal, state and local government web resources and services.